sensor_id;sensor_type;location;lat;lon;timestamp;P1;durP1;ratioP1;P2;durP2;ratioP2
60847;SDS011;46681;47.696;9.140;2023-06-10T00:01:15;4.60;;;4.17;;
60847;SDS011;46681;47.696;9.140;2023-06-10T00:03:49;5.00;;;4.60;;
60847;SDS011;46681;47.696;9.140;2023-06-10T00:06:21;4.60;;;4.07;;
60847;SDS011;46681;47.696;9.140;2023-06-10T00:08:47;4.70;;;4.40;;
60847;SDS011;46681;47.696;9.140;2023-06-10T00:11:17;4.30;;;4.00;;
60847;SDS011;46681;47.696;9.140;2023-06-10T00:13:47;5.20;;;4.70;;
60847;SDS011;46681;47.696;9.140;2023-06-10T00:16:21;5.00;;;4.53;;
60847;SDS011;46681;47.696;9.140;2023-06-10T00:18:52;4.40;;;4.10;;
60847;SDS011;46681;47.696;9.140;2023-06-10T00:21:30;4.70;;;4.30;;
60847;SDS011;46681;47.696;9.140;2023-06-10T00:24:06;4.17;;;3.87;;
60847;SDS011;46681;47.696;9.140;2023-06-10T00:26:40;4.93;;;4.10;;
60847;SDS011;46681;47.696;9.140;2023-06-10T00:29:10;4.70;;;4.20;;
60847;SDS011;46681;47.696;9.140;2023-06-10T00:31:37;4.40;;;4.00;;
60847;SDS011;46681;47.696;9.140;2023-06-10T00:34:03;4.20;;;3.87;;
60847;SDS011;46681;47.696;9.140;2023-06-10T00:36:30;4.30;;;4.00;;
60847;SDS011;46681;47.696;9.140;2023-06-10T00:38:58;4.53;;;4.17;;
60847;SDS011;46681;47.696;9.140;2023-06-10T00:41:24;3.83;;;3.53;;
60847;SDS011;46681;47.696;9.140;2023-06-10T00:43:50;4.30;;;4.00;;
60847;SDS011;46681;47.696;9.140;2023-06-10T00:46:19;4.43;;;4.03;;
60847;SDS011;46681;47.696;9.140;2023-06-10T00:48:49;4.50;;;4.10;;
60847;SDS011;46681;47.696;9.140;2023-06-10T00:51:22;4.23;;;3.93;;
60847;SDS011;46681;47.696;9.140;2023-06-10T00:53:52;4.73;;;4.00;;
60847;SDS011;46681;47.696;9.140;2023-06-10T00:56:18;4.10;;;3.70;;
60847;SDS011;46681;47.696;9.140;2023-06-10T00:58:47;3.70;;;3.40;;
60847;SDS011;46681;47.696;9.140;2023-06-10T01:01:18;4.27;;;3.93;;
60847;SDS011;46681;47.696;9.140;2023-06-10T01:03:47;4.30;;;3.90;;
60847;SDS011;46681;47.696;9.140;2023-06-10T01:06:24;4.00;;;3.70;;
60847;SDS011;46681;47.696;9.140;2023-06-10T01:09:11;4.40;;;4.10;;
60847;SDS011;46681;47.696;9.140;2023-06-10T01:14:54;4.53;;;4.13;;
60847;SDS011;46681;47.696;9.140;2023-06-10T01:17:21;4.10;;;3.80;;
60847;SDS011;46681;47.696;9.140;2023-06-10T01:19:53;4.50;;;4.10;;
60847;SDS011;46681;47.696;9.140;2023-06-10T01:22:20;3.50;;;3.20;;
60847;SDS011;46681;47.696;9.140;2023-06-10T01:24:54;3.60;;;3.40;;
60847;SDS011;46681;47.696;9.140;2023-06-10T01:27:21;4.00;;;3.70;;
60847;SDS011;46681;47.696;9.140;2023-06-10T01:29:54;3.67;;;3.37;;
60847;SDS011;46681;47.696;9.140;2023-06-10T01:32:29;4.10;;;3.80;;
60847;SDS011;46681;47.696;9.140;2023-06-10T01:35:07;4.23;;;3.90;;
60847;SDS011;46681;47.696;9.140;2023-06-10T01:37:34;4.10;;;3.70;;
60847;SDS011;46681;47.696;9.140;2023-06-10T01:40:02;4.43;;;3.57;;
60847;SDS011;46681;47.696;9.140;2023-06-10T01:42:29;4.30;;;3.90;;
60847;SDS011;46681;47.696;9.140;2023-06-10T01:44:59;4.30;;;3.90;;
60847;SDS011;46681;47.696;9.140;2023-06-10T01:47:27;4.87;;;3.67;;
60847;SDS011;46681;47.696;9.140;2023-06-10T01:49:57;4.17;;;3.87;;
60847;SDS011;46681;47.696;9.140;2023-06-10T01:52:42;4.27;;;3.97;;
60847;SDS011;46681;47.696;9.140;2023-06-10T01:55:11;4.07;;;3.77;;
60847;SDS011;46681;47.696;9.140;2023-06-10T01:57:38;4.23;;;3.80;;
60847;SDS011;46681;47.696;9.140;2023-06-10T02:00:08;4.97;;;4.07;;
60847;SDS011;46681;47.696;9.140;2023-06-10T02:02:38;4.00;;;3.70;;
60847;SDS011;46681;47.696;9.140;2023-06-10T02:08:02;4.10;;;3.67;;
60847;SDS011;46681;47.696;9.140;2023-06-10T02:10:29;3.87;;;3.67;;
60847;SDS011;46681;47.696;9.140;2023-06-10T02:12:55;3.80;;;3.50;;
60847;SDS011;46681;47.696;9.140;2023-06-10T02:15:23;4.00;;;3.70;;
60847;SDS011;46681;47.696;9.140;2023-06-10T02:18:00;4.57;;;4.00;;
60847;SDS011;46681;47.696;9.140;2023-06-10T02:20:33;4.83;;;3.83;;
60847;SDS011;46681;47.696;9.140;2023-06-10T02:23:00;4.10;;;3.80;;
60847;SDS011;46681;47.696;9.140;2023-06-10T02:25:25;4.30;;;4.00;;
60847;SDS011;46681;47.696;9.140;2023-06-10T02:27:51;3.90;;;3.60;;
60847;SDS011;46681;47.696;9.140;2023-06-10T02:30:16;3.93;;;3.60;;
60847;SDS011;46681;47.696;9.140;2023-06-10T02:32:42;4.50;;;4.10;;
60847;SDS011;46681;47.696;9.140;2023-06-10T02:35:09;4.30;;;4.00;;
60847;SDS011;46681;47.696;9.140;2023-06-10T02:37:35;4.73;;;4.33;;
60847;SDS011;46681;47.696;9.140;2023-06-10T02:40:08;4.13;;;3.83;;
60847;SDS011;46681;47.696;9.140;2023-06-10T02:42:46;4.27;;;3.93;;
60847;SDS011;46681;47.696;9.140;2023-06-10T02:45:13;4.20;;;3.90;;
60847;SDS011;46681;47.696;9.140;2023-06-10T02:47:44;4.30;;;4.00;;
60847;SDS011;46681;47.696;9.140;2023-06-10T02:50:10;4.20;;;3.90;;
60847;SDS011;46681;47.696;9.140;2023-06-10T02:52:41;4.60;;;4.30;;
60847;SDS011;46681;47.696;9.140;2023-06-10T02:55:11;4.43;;;4.13;;
60847;SDS011;46681;47.696;9.140;2023-06-10T02:57:45;4.10;;;3.80;;
60847;SDS011;46681;47.696;9.140;2023-06-10T03:00:16;4.27;;;3.97;;
60847;SDS011;46681;47.696;9.140;2023-06-10T03:02:42;4.83;;;4.43;;
60847;SDS011;46681;47.696;9.140;2023-06-10T03:05:08;4.47;;;4.07;;
60847;SDS011;46681;47.696;9.140;2023-06-10T03:07:35;4.53;;;4.23;;
60847;SDS011;46681;47.696;9.140;2023-06-10T03:10:01;4.37;;;4.07;;
60847;SDS011;46681;47.696;9.140;2023-06-10T03:12:30;4.23;;;3.93;;
60847;SDS011;46681;47.696;9.140;2023-06-10T03:14:58;4.50;;;4.17;;
60847;SDS011;46681;47.696;9.140;2023-06-10T03:17:30;4.57;;;4.27;;
60847;SDS011;46681;47.696;9.140;2023-06-10T03:19:59;4.93;;;4.50;;
60847;SDS011;46681;47.696;9.140;2023-06-10T03:22:36;4.63;;;4.17;;
60847;SDS011;46681;47.696;9.140;2023-06-10T03:25:10;5.03;;;4.63;;
60847;SDS011;46681;47.696;9.140;2023-06-10T03:27:42;4.23;;;3.90;;
60847;SDS011;46681;47.696;9.140;2023-06-10T03:30:12;4.40;;;4.10;;
60847;SDS011;46681;47.696;9.140;2023-06-10T03:32:50;4.33;;;4.03;;
60847;SDS011;46681;47.696;9.140;2023-06-10T03:38:00;4.43;;;4.13;;
60847;SDS011;46681;47.696;9.140;2023-06-10T03:40:25;5.17;;;4.77;;
60847;SDS011;46681;47.696;9.140;2023-06-10T03:42:55;4.77;;;4.40;;
60847;SDS011;46681;47.696;9.140;2023-06-10T03:45:29;4.73;;;4.43;;
60847;SDS011;46681;47.696;9.140;2023-06-10T03:47:57;5.40;;;4.90;;
60847;SDS011;46681;47.696;9.140;2023-06-10T03:50:24;4.67;;;4.33;;
60847;SDS011;46681;47.696;9.140;2023-06-10T03:52:54;4.53;;;4.17;;
60847;SDS011;46681;47.696;9.140;2023-06-10T03:55:19;4.90;;;4.53;;
60847;SDS011;46681;47.696;9.140;2023-06-10T04:03:54;4.70;;;4.30;;
60847;SDS011;46681;47.696;9.140;2023-06-10T04:06:28;4.70;;;4.30;;
60847;SDS011;46681;47.696;9.140;2023-06-10T04:08:55;4.80;;;4.40;;
60847;SDS011;46681;47.696;9.140;2023-06-10T04:11:25;5.30;;;4.97;;
60847;SDS011;46681;47.696;9.140;2023-06-10T04:13:53;4.50;;;4.10;;
60847;SDS011;46681;47.696;9.140;2023-06-10T04:16:20;4.90;;;4.37;;
60847;SDS011;46681;47.696;9.140;2023-06-10T04:18:52;5.03;;;4.63;;
60847;SDS011;46681;47.696;9.140;2023-06-10T04:21:20;5.03;;;4.40;;
60847;SDS011;46681;47.696;9.140;2023-06-10T04:24:07;4.73;;;4.27;;
60847;SDS011;46681;47.696;9.140;2023-06-10T04:26:38;4.67;;;4.37;;
60847;SDS011;46681;47.696;9.140;2023-06-10T04:29:14;4.83;;;4.53;;
60847;SDS011;46681;47.696;9.140;2023-06-10T04:31:46;5.03;;;4.63;;
60847;SDS011;46681;47.696;9.140;2023-06-10T04:49:16;5.17;;;4.73;;
60847;SDS011;46681;47.696;9.140;2023-06-10T04:51:42;5.07;;;4.37;;
60847;SDS011;46681;47.696;9.140;2023-06-10T04:54:29;5.00;;;4.60;;
60847;SDS011;46681;47.696;9.140;2023-06-10T05:19:20;4.73;;;4.33;;
60847;SDS011;46681;47.696;9.140;2023-06-10T05:21:57;4.77;;;4.37;;
60847;SDS011;46681;47.696;9.140;2023-06-10T05:24:41;4.80;;;4.50;;
60847;SDS011;46681;47.696;9.140;2023-06-10T05:30:13;4.67;;;4.27;;
60847;SDS011;46681;47.696;9.140;2023-06-10T05:32:52;4.70;;;4.30;;
60847;SDS011;46681;47.696;9.140;2023-06-10T05:35:25;4.70;;;4.30;;
60847;SDS011;46681;47.696;9.140;2023-06-10T05:38:14;8.30;;;4.77;;
60847;SDS011;46681;47.696;9.140;2023-06-10T05:40:43;6.90;;;4.37;;
60847;SDS011;46681;47.696;9.140;2023-06-10T05:43:26;8.30;;;4.67;;
60847;SDS011;46681;47.696;9.140;2023-06-10T05:49:56;7.07;;;4.43;;
60847;SDS011;46681;47.696;9.140;2023-06-10T05:52:33;5.47;;;4.53;;
60847;SDS011;46681;47.696;9.140;2023-06-10T05:55:11;5.07;;;4.57;;
60847;SDS011;46681;47.696;9.140;2023-06-10T05:57:43;5.57;;;4.23;;
60847;SDS011;46681;47.696;9.140;2023-06-10T06:00:14;4.80;;;4.40;;
60847;SDS011;46681;47.696;9.140;2023-06-10T06:02:40;5.00;;;4.60;;
60847;SDS011;46681;47.696;9.140;2023-06-10T06:05:10;5.30;;;4.40;;
60847;SDS011;46681;47.696;9.140;2023-06-10T06:07:41;5.30;;;4.90;;
60847;SDS011;46681;47.696;9.140;2023-06-10T06:10:13;4.80;;;4.40;;
60847;SDS011;46681;47.696;9.140;2023-06-10T06:12:42;4.67;;;4.17;;
60847;SDS011;46681;47.696;9.140;2023-06-10T06:15:11;5.53;;;4.77;;
60847;SDS011;46681;47.696;9.140;2023-06-10T06:20:49;6.20;;;4.67;;
60847;SDS011;46681;47.696;9.140;2023-06-10T06:23:21;5.50;;;4.50;;
60847;SDS011;46681;47.696;9.140;2023-06-10T06:26:02;4.90;;;4.50;;
60847;SDS011;46681;47.696;9.140;2023-06-10T06:28:54;5.03;;;4.53;;
60847;SDS011;46681;47.696;9.140;2023-06-10T06:34:38;4.83;;;4.33;;
60847;SDS011;46681;47.696;9.140;2023-06-10T06:37:04;5.27;;;4.87;;
60847;SDS011;46681;47.696;9.140;2023-06-10T06:39:30;5.10;;;4.60;;
60847;SDS011;46681;47.696;9.140;2023-06-10T06:41:58;4.63;;;4.30;;
60847;SDS011;46681;47.696;9.140;2023-06-10T06:47:43;5.03;;;4.57;;
60847;SDS011;46681;47.696;9.140;2023-06-10T06:50:31;4.73;;;4.33;;
60847;SDS011;46681;47.696;9.140;2023-06-10T06:53:10;4.30;;;4.00;;
60847;SDS011;46681;47.696;9.140;2023-06-10T06:56:16;4.63;;;4.33;;
60847;SDS011;46681;47.696;9.140;2023-06-10T06:59:11;4.60;;;4.20;;
60847;SDS011;46681;47.696;9.140;2023-06-10T07:01:59;4.27;;;3.97;;
60847;SDS011;46681;47.696;9.140;2023-06-10T07:04:31;4.83;;;4.40;;
60847;SDS011;46681;47.696;9.140;2023-06-10T07:07:00;4.90;;;4.40;;
60847;SDS011;46681;47.696;9.140;2023-06-10T07:09:50;13.53;;;5.20;;
60847;SDS011;46681;47.696;9.140;2023-06-10T07:12:23;11.20;;;4.83;;
60847;SDS011;46681;47.696;9.140;2023-06-10T07:14:55;5.43;;;4.23;;
60847;SDS011;46681;47.696;9.140;2023-06-10T07:17:39;5.50;;;4.27;;
60847;SDS011;46681;47.696;9.140;2023-06-10T07:20:21;9.90;;;4.60;;
60847;SDS011;46681;47.696;9.140;2023-06-10T07:23:04;6.27;;;4.67;;
60847;SDS011;46681;47.696;9.140;2023-06-10T07:25:41;8.17;;;4.93;;
60847;SDS011;46681;47.696;9.140;2023-06-10T07:28:29;6.23;;;4.43;;
60847;SDS011;46681;47.696;9.140;2023-06-10T07:37:44;7.43;;;5.43;;
60847;SDS011;46681;47.696;9.140;2023-06-10T07:43:24;6.13;;;4.83;;
60847;SDS011;46681;47.696;9.140;2023-06-10T07:46:02;6.97;;;5.00;;
60847;SDS011;46681;47.696;9.140;2023-06-10T07:48:53;8.13;;;4.53;;
60847;SDS011;46681;47.696;9.140;2023-06-10T07:51:46;5.37;;;4.87;;
60847;SDS011;46681;47.696;9.140;2023-06-10T07:54:12;5.27;;;4.87;;
60847;SDS011;46681;47.696;9.140;2023-06-10T07:57:23;5.23;;;4.70;;
60847;SDS011;46681;47.696;9.140;2023-06-10T08:10:23;5.50;;;4.10;;
60847;SDS011;46681;47.696;9.140;2023-06-10T08:16:47;4.63;;;4.33;;
60847;SDS011;46681;47.696;9.140;2023-06-10T08:23:02;5.47;;;4.80;;
60847;SDS011;46681;47.696;9.140;2023-06-10T08:25:49;4.73;;;4.33;;
60847;SDS011;46681;47.696;9.140;2023-06-10T08:28:19;5.53;;;5.03;;
60847;SDS011;46681;47.696;9.140;2023-06-10T08:37:03;5.13;;;4.67;;
60847;SDS011;46681;47.696;9.140;2023-06-10T08:39:38;4.93;;;4.63;;
60847;SDS011;46681;47.696;9.140;2023-06-10T08:48:54;5.93;;;4.50;;
60847;SDS011;46681;47.696;9.140;2023-06-10T09:01:12;4.70;;;4.30;;
60847;SDS011;46681;47.696;9.140;2023-06-10T09:04:09;4.97;;;4.53;;
60847;SDS011;46681;47.696;9.140;2023-06-10T09:07:29;4.90;;;4.50;;
60847;SDS011;46681;47.696;9.140;2023-06-10T09:16:19;4.63;;;4.23;;
60847;SDS011;46681;47.696;9.140;2023-06-10T09:31:25;5.63;;;4.30;;
60847;SDS011;46681;47.696;9.140;2023-06-10T09:59:05;9.13;;;4.63;;
60847;SDS011;46681;47.696;9.140;2023-06-10T10:02:14;7.27;;;4.70;;
60847;SDS011;46681;47.696;9.140;2023-06-10T10:14:46;5.33;;;4.50;;
60847;SDS011;46681;47.696;9.140;2023-06-10T10:20:54;5.17;;;4.67;;
60847;SDS011;46681;47.696;9.140;2023-06-10T11:46:36;3.90;;;3.60;;
60847;SDS011;46681;47.696;9.140;2023-06-10T12:17:17;4.03;;;3.73;;
60847;SDS011;46681;47.696;9.140;2023-06-10T12:29:31;4.40;;;3.53;;
60847;SDS011;46681;47.696;9.140;2023-06-10T12:51:38;3.60;;;3.30;;
60847;SDS011;46681;47.696;9.140;2023-06-10T12:55:03;3.53;;;3.23;;
60847;SDS011;46681;47.696;9.140;2023-06-10T12:58:11;3.10;;;2.90;;
60847;SDS011;46681;47.696;9.140;2023-06-10T13:01:15;3.30;;;3.10;;
60847;SDS011;46681;47.696;9.140;2023-06-10T13:10:31;2.93;;;2.63;;
60847;SDS011;46681;47.696;9.140;2023-06-10T13:31:44;3.27;;;2.97;;
60847;SDS011;46681;47.696;9.140;2023-06-10T13:34:40;2.97;;;2.77;;
60847;SDS011;46681;47.696;9.140;2023-06-10T13:40:51;3.20;;;3.00;;
60847;SDS011;46681;47.696;9.140;2023-06-10T13:43:36;2.90;;;2.70;;
60847;SDS011;46681;47.696;9.140;2023-06-10T13:46:19;2.57;;;2.37;;
60847;SDS011;46681;47.696;9.140;2023-06-10T13:49:27;3.23;;;2.93;;
60847;SDS011;46681;47.696;9.140;2023-06-10T13:55:41;2.78;;;2.67;;
60847;SDS011;46681;47.696;9.140;2023-06-10T13:58:28;3.00;;;2.80;;
60847;SDS011;46681;47.696;9.140;2023-06-10T14:07:49;2.60;;;2.43;;
60847;SDS011;46681;47.696;9.140;2023-06-10T14:10:45;5.13;;;2.60;;
60847;SDS011;46681;47.696;9.140;2023-06-10T14:13:41;3.40;;;2.30;;
60847;SDS011;46681;47.696;9.140;2023-06-10T14:29:11;3.03;;;2.77;;
60847;SDS011;46681;47.696;9.140;2023-06-10T14:31:58;2.67;;;2.47;;
60847;SDS011;46681;47.696;9.140;2023-06-10T14:34:56;2.67;;;2.47;;
60847;SDS011;46681;47.696;9.140;2023-06-10T14:50:23;2.37;;;2.27;;
60847;SDS011;46681;47.696;9.140;2023-06-10T14:53:53;2.80;;;2.60;;
60847;SDS011;46681;47.696;9.140;2023-06-10T15:14:50;8.50;;;3.10;;
60847;SDS011;46681;47.696;9.140;2023-06-10T15:17:59;3.57;;;2.20;;
60847;SDS011;46681;47.696;9.140;2023-06-10T15:21:04;4.03;;;2.40;;
60847;SDS011;46681;47.696;9.140;2023-06-10T15:24:13;3.00;;;2.80;;
60847;SDS011;46681;47.696;9.140;2023-06-10T15:27:06;5.57;;;2.53;;
60847;SDS011;46681;47.696;9.140;2023-06-10T16:11:35;4.37;;;3.23;;
60847;SDS011;46681;47.696;9.140;2023-06-10T16:17:04;9.90;;;3.27;;
60847;SDS011;46681;47.696;9.140;2023-06-10T16:22:46;6.83;;;2.90;;
60847;SDS011;46681;47.696;9.140;2023-06-10T16:26:04;3.37;;;2.90;;
60847;SDS011;46681;47.696;9.140;2023-06-10T16:28:30;3.70;;;2.83;;
60847;SDS011;46681;47.696;9.140;2023-06-10T16:30:59;3.90;;;2.90;;
60847;SDS011;46681;47.696;9.140;2023-06-10T16:33:35;4.70;;;2.50;;
60847;SDS011;46681;47.696;9.140;2023-06-10T16:39:59;5.60;;;2.73;;
60847;SDS011;46681;47.696;9.140;2023-06-10T16:45:49;4.60;;;2.57;;
60847;SDS011;46681;47.696;9.140;2023-06-10T16:48:40;2.97;;;2.70;;
60847;SDS011;46681;47.696;9.140;2023-06-10T16:52:09;3.43;;;2.70;;
60847;SDS011;46681;47.696;9.140;2023-06-10T16:54:36;2.90;;;2.60;;
60847;SDS011;46681;47.696;9.140;2023-06-10T16:57:19;2.97;;;2.40;;
60847;SDS011;46681;47.696;9.140;2023-06-10T16:59:46;3.00;;;2.70;;
60847;SDS011;46681;47.696;9.140;2023-06-10T17:02:40;4.53;;;2.67;;
60847;SDS011;46681;47.696;9.140;2023-06-10T17:05:32;3.00;;;2.80;;
60847;SDS011;46681;47.696;9.140;2023-06-10T17:08:28;2.90;;;2.60;;
60847;SDS011;46681;47.696;9.140;2023-06-10T17:14:47;3.40;;;2.57;;
60847;SDS011;46681;47.696;9.140;2023-06-10T17:20:31;3.30;;;2.70;;
60847;SDS011;46681;47.696;9.140;2023-06-10T17:23:04;4.67;;;2.63;;
60847;SDS011;46681;47.696;9.140;2023-06-10T17:25:45;2.67;;;2.47;;
60847;SDS011;46681;47.696;9.140;2023-06-10T17:28:25;3.13;;;2.60;;
60847;SDS011;46681;47.696;9.140;2023-06-10T17:31:14;2.57;;;2.47;;
60847;SDS011;46681;47.696;9.140;2023-06-10T17:34:02;3.60;;;3.30;;
60847;SDS011;46681;47.696;9.140;2023-06-10T17:36:33;2.50;;;2.33;;
60847;SDS011;46681;47.696;9.140;2023-06-10T17:39:04;2.60;;;2.40;;
60847;SDS011;46681;47.696;9.140;2023-06-10T17:42:12;2.83;;;2.63;;
60847;SDS011;46681;47.696;9.140;2023-06-10T17:45:24;2.90;;;2.70;;
60847;SDS011;46681;47.696;9.140;2023-06-10T17:47:55;2.93;;;2.73;;
60847;SDS011;46681;47.696;9.140;2023-06-10T17:51:02;3.00;;;2.80;;
60847;SDS011;46681;47.696;9.140;2023-06-10T17:56:43;3.03;;;2.83;;
60847;SDS011;46681;47.696;9.140;2023-06-10T17:59:18;3.00;;;2.80;;
60847;SDS011;46681;47.696;9.140;2023-06-10T18:02:01;3.10;;;2.93;;
60847;SDS011;46681;47.696;9.140;2023-06-10T18:04:57;3.23;;;3.03;;
60847;SDS011;46681;47.696;9.140;2023-06-10T18:07:26;3.30;;;3.10;;
60847;SDS011;46681;47.696;9.140;2023-06-10T18:10:19;2.83;;;2.63;;
60847;SDS011;46681;47.696;9.140;2023-06-10T18:13:09;3.40;;;3.10;;
60847;SDS011;46681;47.696;9.140;2023-06-10T18:15:37;3.23;;;3.03;;
60847;SDS011;46681;47.696;9.140;2023-06-10T18:18:11;3.00;;;2.80;;
60847;SDS011;46681;47.696;9.140;2023-06-10T18:20:48;3.30;;;3.10;;
60847;SDS011;46681;47.696;9.140;2023-06-10T18:23:27;2.90;;;2.70;;
60847;SDS011;46681;47.696;9.140;2023-06-10T18:29:32;3.03;;;2.83;;
60847;SDS011;46681;47.696;9.140;2023-06-10T18:35:22;3.10;;;2.90;;
60847;SDS011;46681;47.696;9.140;2023-06-10T18:41:19;3.03;;;2.87;;
60847;SDS011;46681;47.696;9.140;2023-06-10T18:43:57;3.30;;;3.10;;
60847;SDS011;46681;47.696;9.140;2023-06-10T18:46:31;3.40;;;3.20;;
60847;SDS011;46681;47.696;9.140;2023-06-10T18:49:08;3.17;;;2.97;;
60847;SDS011;46681;47.696;9.140;2023-06-10T18:51:57;3.50;;;3.20;;
60847;SDS011;46681;47.696;9.140;2023-06-10T18:54:36;3.30;;;3.00;;
60847;SDS011;46681;47.696;9.140;2023-06-10T18:57:23;3.13;;;2.93;;
60847;SDS011;46681;47.696;9.140;2023-06-10T19:00:06;3.83;;;3.53;;
60847;SDS011;46681;47.696;9.140;2023-06-10T19:03:15;3.60;;;3.30;;
60847;SDS011;46681;47.696;9.140;2023-06-10T19:06:20;3.17;;;2.97;;
60847;SDS011;46681;47.696;9.140;2023-06-10T19:08:56;3.40;;;3.10;;
60847;SDS011;46681;47.696;9.140;2023-06-10T19:11:41;3.90;;;3.60;;
60847;SDS011;46681;47.696;9.140;2023-06-10T19:14:15;3.27;;;3.03;;
60847;SDS011;46681;47.696;9.140;2023-06-10T19:16:59;4.10;;;3.80;;
60847;SDS011;46681;47.696;9.140;2023-06-10T19:20:10;3.53;;;3.33;;
60847;SDS011;46681;47.696;9.140;2023-06-10T19:23:02;4.03;;;3.53;;
60847;SDS011;46681;47.696;9.140;2023-06-10T19:25:31;4.23;;;3.60;;
60847;SDS011;46681;47.696;9.140;2023-06-10T19:31:15;4.77;;;3.53;;
60847;SDS011;46681;47.696;9.140;2023-06-10T19:34:18;3.37;;;3.17;;
60847;SDS011;46681;47.696;9.140;2023-06-10T19:37:21;3.97;;;3.67;;
60847;SDS011;46681;47.696;9.140;2023-06-10T19:46:19;3.57;;;3.27;;
60847;SDS011;46681;47.696;9.140;2023-06-10T19:55:43;3.70;;;3.40;;
60847;SDS011;46681;47.696;9.140;2023-06-10T19:58:20;3.83;;;3.40;;
60847;SDS011;46681;47.696;9.140;2023-06-10T20:07:20;3.80;;;3.37;;
60847;SDS011;46681;47.696;9.140;2023-06-10T20:09:54;3.43;;;3.23;;
60847;SDS011;46681;47.696;9.140;2023-06-10T20:12:21;3.67;;;3.43;;
60847;SDS011;46681;47.696;9.140;2023-06-10T20:14:52;3.37;;;3.17;;
60847;SDS011;46681;47.696;9.140;2023-06-10T20:17:20;3.70;;;3.20;;
60847;SDS011;46681;47.696;9.140;2023-06-10T20:19:59;3.53;;;3.30;;
60847;SDS011;46681;47.696;9.140;2023-06-10T20:22:38;3.90;;;3.50;;
60847;SDS011;46681;47.696;9.140;2023-06-10T20:25:12;3.77;;;3.47;;
60847;SDS011;46681;47.696;9.140;2023-06-10T20:27:54;2.93;;;2.83;;
60847;SDS011;46681;47.696;9.140;2023-06-10T20:30:27;5.33;;;3.30;;
60847;SDS011;46681;47.696;9.140;2023-06-10T20:33:03;3.80;;;3.50;;
60847;SDS011;46681;47.696;9.140;2023-06-10T20:35:30;3.33;;;3.00;;
60847;SDS011;46681;47.696;9.140;2023-06-10T20:38:04;3.13;;;2.93;;
60847;SDS011;46681;47.696;9.140;2023-06-10T20:40:37;3.63;;;3.37;;
60847;SDS011;46681;47.696;9.140;2023-06-10T20:43:04;3.57;;;3.30;;
60847;SDS011;46681;47.696;9.140;2023-06-10T20:45:30;3.33;;;3.10;;
60847;SDS011;46681;47.696;9.140;2023-06-10T20:47:58;3.60;;;3.40;;
60847;SDS011;46681;47.696;9.140;2023-06-10T20:50:25;3.40;;;3.20;;
60847;SDS011;46681;47.696;9.140;2023-06-10T20:52:57;3.40;;;3.20;;
60847;SDS011;46681;47.696;9.140;2023-06-10T20:55:23;3.27;;;3.07;;
60847;SDS011;46681;47.696;9.140;2023-06-10T20:57:56;3.50;;;3.20;;
60847;SDS011;46681;47.696;9.140;2023-06-10T21:00:22;3.77;;;3.47;;
60847;SDS011;46681;47.696;9.140;2023-06-10T21:02:52;3.63;;;3.40;;
60847;SDS011;46681;47.696;9.140;2023-06-10T21:05:24;4.17;;;3.10;;
60847;SDS011;46681;47.696;9.140;2023-06-10T21:07:50;3.70;;;3.40;;
60847;SDS011;46681;47.696;9.140;2023-06-10T21:10:21;2.93;;;2.73;;
60847;SDS011;46681;47.696;9.140;2023-06-10T21:12:51;4.03;;;3.57;;
60847;SDS011;46681;47.696;9.140;2023-06-10T21:15:24;3.10;;;2.90;;
60847;SDS011;46681;47.696;9.140;2023-06-10T21:17:55;3.63;;;3.33;;
60847;SDS011;46681;47.696;9.140;2023-06-10T21:20:23;3.20;;;3.00;;
60847;SDS011;46681;47.696;9.140;2023-06-10T21:22:50;3.50;;;3.30;;
60847;SDS011;46681;47.696;9.140;2023-06-10T21:25:24;3.07;;;2.87;;
60847;SDS011;46681;47.696;9.140;2023-06-10T21:27:51;3.50;;;3.30;;
60847;SDS011;46681;47.696;9.140;2023-06-10T21:30:22;3.17;;;2.97;;
60847;SDS011;46681;47.696;9.140;2023-06-10T21:32:55;3.27;;;3.07;;
60847;SDS011;46681;47.696;9.140;2023-06-10T21:35:22;3.50;;;3.30;;
60847;SDS011;46681;47.696;9.140;2023-06-10T21:37:53;3.27;;;3.07;;
60847;SDS011;46681;47.696;9.140;2023-06-10T21:40:20;3.20;;;3.00;;
60847;SDS011;46681;47.696;9.140;2023-06-10T21:42:47;3.30;;;3.10;;
60847;SDS011;46681;47.696;9.140;2023-06-10T21:45:13;3.43;;;3.23;;
60847;SDS011;46681;47.696;9.140;2023-06-10T21:47:39;2.97;;;2.77;;
60847;SDS011;46681;47.696;9.140;2023-06-10T21:50:13;3.00;;;2.80;;
60847;SDS011;46681;47.696;9.140;2023-06-10T21:52:39;3.73;;;3.43;;
60847;SDS011;46681;47.696;9.140;2023-06-10T21:55:05;3.67;;;3.10;;
60847;SDS011;46681;47.696;9.140;2023-06-10T21:57:36;2.93;;;2.73;;
60847;SDS011;46681;47.696;9.140;2023-06-10T22:00:07;3.80;;;3.60;;
60847;SDS011;46681;47.696;9.140;2023-06-10T22:02:39;3.17;;;2.97;;
60847;SDS011;46681;47.696;9.140;2023-06-10T22:05:06;3.70;;;3.40;;
60847;SDS011;46681;47.696;9.140;2023-06-10T22:07:34;3.70;;;3.50;;
60847;SDS011;46681;47.696;9.140;2023-06-10T22:10:02;3.33;;;3.03;;
60847;SDS011;46681;47.696;9.140;2023-06-10T22:12:28;3.80;;;3.60;;
60847;SDS011;46681;47.696;9.140;2023-06-10T22:14:54;3.30;;;3.10;;
60847;SDS011;46681;47.696;9.140;2023-06-10T22:17:24;3.00;;;2.80;;
60847;SDS011;46681;47.696;9.140;2023-06-10T22:19:52;3.57;;;3.20;;
60847;SDS011;46681;47.696;9.140;2023-06-10T22:22:17;3.37;;;2.93;;
60847;SDS011;46681;47.696;9.140;2023-06-10T22:24:46;2.83;;;2.67;;
60847;SDS011;46681;47.696;9.140;2023-06-10T22:27:21;3.20;;;3.00;;
60847;SDS011;46681;47.696;9.140;2023-06-10T22:29:49;7.27;;;3.03;;
60847;SDS011;46681;47.696;9.140;2023-06-10T22:32:18;3.33;;;3.13;;
60847;SDS011;46681;47.696;9.140;2023-06-10T22:34:48;3.80;;;3.23;;
60847;SDS011;46681;47.696;9.140;2023-06-10T22:37:14;3.20;;;3.00;;
60847;SDS011;46681;47.696;9.140;2023-06-10T22:39:47;3.13;;;2.97;;
60847;SDS011;46681;47.696;9.140;2023-06-10T22:42:13;3.27;;;2.97;;
60847;SDS011;46681;47.696;9.140;2023-06-10T22:44:39;3.40;;;3.20;;
60847;SDS011;46681;47.696;9.140;2023-06-10T22:47:05;4.00;;;2.80;;
60847;SDS011;46681;47.696;9.140;2023-06-10T22:49:31;3.17;;;2.90;;
60847;SDS011;46681;47.696;9.140;2023-06-10T22:51:57;3.03;;;2.83;;
60847;SDS011;46681;47.696;9.140;2023-06-10T22:54:37;3.03;;;2.83;;
60847;SDS011;46681;47.696;9.140;2023-06-10T22:57:08;3.03;;;2.87;;
60847;SDS011;46681;47.696;9.140;2023-06-10T22:59:36;3.03;;;2.83;;
60847;SDS011;46681;47.696;9.140;2023-06-10T23:02:03;2.83;;;2.73;;
60847;SDS011;46681;47.696;9.140;2023-06-10T23:04:31;3.20;;;3.00;;
60847;SDS011;46681;47.696;9.140;2023-06-10T23:06:59;2.80;;;2.70;;
60847;SDS011;46681;47.696;9.140;2023-06-10T23:09:32;3.37;;;3.10;;
60847;SDS011;46681;47.696;9.140;2023-06-10T23:12:03;3.63;;;3.40;;
60847;SDS011;46681;47.696;9.140;2023-06-10T23:14:37;3.30;;;3.10;;
60847;SDS011;46681;47.696;9.140;2023-06-10T23:17:06;3.10;;;2.90;;
60847;SDS011;46681;47.696;9.140;2023-06-10T23:19:37;2.67;;;2.57;;
60847;SDS011;46681;47.696;9.140;2023-06-10T23:22:03;3.00;;;2.87;;
60847;SDS011;46681;47.696;9.140;2023-06-10T23:24:35;3.20;;;3.00;;
60847;SDS011;46681;47.696;9.140;2023-06-10T23:27:05;2.80;;;2.70;;
60847;SDS011;46681;47.696;9.140;2023-06-10T23:29:31;2.73;;;2.63;;
60847;SDS011;46681;47.696;9.140;2023-06-10T23:31:56;3.20;;;3.00;;
60847;SDS011;46681;47.696;9.140;2023-06-10T23:34:22;2.97;;;2.77;;
60847;SDS011;46681;47.696;9.140;2023-06-10T23:36:50;3.17;;;2.97;;
60847;SDS011;46681;47.696;9.140;2023-06-10T23:39:16;3.00;;;2.80;;
60847;SDS011;46681;47.696;9.140;2023-06-10T23:41:42;3.20;;;3.00;;
60847;SDS011;46681;47.696;9.140;2023-06-10T23:44:11;3.00;;;2.80;;
60847;SDS011;46681;47.696;9.140;2023-06-10T23:46:40;3.40;;;3.20;;
60847;SDS011;46681;47.696;9.140;2023-06-10T23:49:06;3.10;;;2.90;;
60847;SDS011;46681;47.696;9.140;2023-06-10T23:51:32;2.77;;;2.67;;
60847;SDS011;46681;47.696;9.140;2023-06-10T23:53:57;3.17;;;2.97;;
60847;SDS011;46681;47.696;9.140;2023-06-10T23:56:25;2.87;;;2.67;;